sensor_id;sensor_type;location;lat;lon;timestamp;P1;durP1;ratioP1;P2;durP2;ratioP2
21239;SDS011;10778;48.962;9.018;2022-08-04T00:01:32;2.95;;;2.38;;
21239;SDS011;10778;48.962;9.018;2022-08-04T00:04:52;2.50;;;2.08;;
21239;SDS011;10778;48.962;9.018;2022-08-04T00:09:46;2.80;;;2.42;;
21239;SDS011;10778;48.962;9.018;2022-08-04T00:12:18;2.33;;;2.13;;
21239;SDS011;10778;48.962;9.018;2022-08-04T00:14:47;4.78;;;2.40;;
21239;SDS011;10778;48.962;9.018;2022-08-04T00:17:19;2.45;;;2.03;;
21239;SDS011;10778;48.962;9.018;2022-08-04T00:19:48;3.00;;;2.20;;
21239;SDS011;10778;48.962;9.018;2022-08-04T00:22:22;2.42;;;2.20;;
21239;SDS011;10778;48.962;9.018;2022-08-04T00:24:52;2.25;;;2.00;;
21239;SDS011;10778;48.962;9.018;2022-08-04T00:27:20;2.90;;;2.20;;
21239;SDS011;10778;48.962;9.018;2022-08-04T00:29:46;3.80;;;2.17;;
21239;SDS011;10778;48.962;9.018;2022-08-04T00:32:12;2.50;;;2.30;;
21239;SDS011;10778;48.962;9.018;2022-08-04T00:34:39;3.13;;;2.28;;
21239;SDS011;10778;48.962;9.018;2022-08-04T00:37:06;3.58;;;2.20;;
21239;SDS011;10778;48.962;9.018;2022-08-04T00:39:32;2.72;;;2.10;;
21239;SDS011;10778;48.962;9.018;2022-08-04T00:52:55;2.35;;;2.15;;
21239;SDS011;10778;48.962;9.018;2022-08-04T00:58:26;3.03;;;2.40;;
21239;SDS011;10778;48.962;9.018;2022-08-04T01:01:02;3.85;;;2.72;;
21239;SDS011;10778;48.962;9.018;2022-08-04T01:06:23;2.85;;;2.35;;
21239;SDS011;10778;48.962;9.018;2022-08-04T01:09:06;4.07;;;2.28;;
21239;SDS011;10778;48.962;9.018;2022-08-04T01:14:29;3.97;;;2.40;;
21239;SDS011;10778;48.962;9.018;2022-08-04T01:17:06;2.92;;;2.38;;
21239;SDS011;10778;48.962;9.018;2022-08-04T01:20:03;2.85;;;2.45;;
21239;SDS011;10778;48.962;9.018;2022-08-04T01:25:52;4.05;;;2.50;;
21239;SDS011;10778;48.962;9.018;2022-08-04T01:28:39;3.45;;;2.60;;
21239;SDS011;10778;48.962;9.018;2022-08-04T01:31:22;4.00;;;2.50;;
21239;SDS011;10778;48.962;9.018;2022-08-04T01:33:56;4.38;;;2.80;;
21239;SDS011;10778;48.962;9.018;2022-08-04T01:36:24;3.83;;;3.05;;
21239;SDS011;10778;48.962;9.018;2022-08-04T01:38:53;3.22;;;2.60;;
21239;SDS011;10778;48.962;9.018;2022-08-04T01:41:19;5.13;;;2.95;;
21239;SDS011;10778;48.962;9.018;2022-08-04T01:43:46;4.10;;;2.83;;
21239;SDS011;10778;48.962;9.018;2022-08-04T01:46:14;3.10;;;2.80;;
21239;SDS011;10778;48.962;9.018;2022-08-04T01:48:41;3.97;;;2.58;;
21239;SDS011;10778;48.962;9.018;2022-08-04T01:51:10;3.63;;;2.78;;
21239;SDS011;10778;48.962;9.018;2022-08-04T01:53:37;4.60;;;2.50;;
21239;SDS011;10778;48.962;9.018;2022-08-04T01:56:06;2.92;;;2.60;;
21239;SDS011;10778;48.962;9.018;2022-08-04T01:58:35;5.40;;;2.50;;
21239;SDS011;10778;48.962;9.018;2022-08-04T02:01:04;2.90;;;2.60;;
21239;SDS011;10778;48.962;9.018;2022-08-04T02:03:36;3.47;;;2.58;;
21239;SDS011;10778;48.962;9.018;2022-08-04T02:11:42;3.92;;;2.45;;
21239;SDS011;10778;48.962;9.018;2022-08-04T02:20:10;2.92;;;2.63;;
21239;SDS011;10778;48.962;9.018;2022-08-04T02:22:43;3.20;;;2.58;;
21239;SDS011;10778;48.962;9.018;2022-08-04T02:25:24;4.80;;;2.40;;
21239;SDS011;10778;48.962;9.018;2022-08-04T02:30:28;2.85;;;2.47;;
21239;SDS011;10778;48.962;9.018;2022-08-04T02:33:01;2.85;;;2.55;;
21239;SDS011;10778;48.962;9.018;2022-08-04T02:35:28;3.42;;;2.58;;
21239;SDS011;10778;48.962;9.018;2022-08-04T02:38:19;3.58;;;2.60;;
21239;SDS011;10778;48.962;9.018;2022-08-04T02:40:49;3.53;;;2.53;;
21239;SDS011;10778;48.962;9.018;2022-08-04T02:43:18;3.33;;;2.65;;
21239;SDS011;10778;48.962;9.018;2022-08-04T02:45:45;3.65;;;2.53;;
21239;SDS011;10778;48.962;9.018;2022-08-04T02:48:16;4.07;;;2.63;;
21239;SDS011;10778;48.962;9.018;2022-08-04T02:50:43;5.57;;;3.00;;
21239;SDS011;10778;48.962;9.018;2022-08-04T02:53:10;3.63;;;2.67;;
21239;SDS011;10778;48.962;9.018;2022-08-04T02:55:40;4.65;;;2.80;;
21239;SDS011;10778;48.962;9.018;2022-08-04T02:58:09;4.03;;;3.00;;
21239;SDS011;10778;48.962;9.018;2022-08-04T03:00:36;3.03;;;2.72;;
21239;SDS011;10778;48.962;9.018;2022-08-04T03:11:34;3.80;;;3.13;;
21239;SDS011;10778;48.962;9.018;2022-08-04T03:19:42;4.40;;;2.90;;
21239;SDS011;10778;48.962;9.018;2022-08-04T03:30:47;4.35;;;2.97;;
21239;SDS011;10778;48.962;9.018;2022-08-04T03:36:14;3.53;;;2.85;;
21239;SDS011;10778;48.962;9.018;2022-08-04T03:39:02;4.25;;;3.13;;
21239;SDS011;10778;48.962;9.018;2022-08-04T03:41:59;3.47;;;2.90;;
21239;SDS011;10778;48.962;9.018;2022-08-04T03:50:38;3.22;;;2.83;;
21239;SDS011;10778;48.962;9.018;2022-08-04T03:53:47;4.65;;;3.08;;
21239;SDS011;10778;48.962;9.018;2022-08-04T03:59:17;4.10;;;3.10;;
21239;SDS011;10778;48.962;9.018;2022-08-04T04:01:59;4.05;;;2.90;;
21239;SDS011;10778;48.962;9.018;2022-08-04T04:40:39;2.88;;;2.60;;
21239;SDS011;10778;48.962;9.018;2022-08-04T04:48:57;3.88;;;3.05;;
21239;SDS011;10778;48.962;9.018;2022-08-04T04:59:23;6.20;;;3.50;;
21239;SDS011;10778;48.962;9.018;2022-08-04T05:02:03;4.28;;;3.03;;
21239;SDS011;10778;48.962;9.018;2022-08-04T05:12:36;4.38;;;3.00;;
21239;SDS011;10778;48.962;9.018;2022-08-04T05:15:03;3.47;;;2.80;;
21239;SDS011;10778;48.962;9.018;2022-08-04T05:17:34;3.75;;;2.88;;
21239;SDS011;10778;48.962;9.018;2022-08-04T05:20:24;3.55;;;3.17;;
21239;SDS011;10778;48.962;9.018;2022-08-04T05:28:27;5.22;;;2.80;;
21239;SDS011;10778;48.962;9.018;2022-08-04T05:31:00;3.80;;;2.53;;
21239;SDS011;10778;48.962;9.018;2022-08-04T05:34:29;3.42;;;2.80;;
21239;SDS011;10778;48.962;9.018;2022-08-04T05:36:35;4.55;;;3.15;;
21239;SDS011;10778;48.962;9.018;2022-08-04T05:39:05;3.85;;;3.15;;
21239;SDS011;10778;48.962;9.018;2022-08-04T05:41:34;4.30;;;3.10;;
21239;SDS011;10778;48.962;9.018;2022-08-04T05:44:03;5.45;;;3.15;;
21239;SDS011;10778;48.962;9.018;2022-08-04T05:46:32;4.30;;;2.58;;
21239;SDS011;10778;48.962;9.018;2022-08-04T05:48:58;4.60;;;2.80;;
21239;SDS011;10778;48.962;9.018;2022-08-04T05:51:24;3.60;;;2.90;;
21239;SDS011;10778;48.962;9.018;2022-08-04T05:53:52;5.47;;;2.80;;
21239;SDS011;10778;48.962;9.018;2022-08-04T05:56:19;5.65;;;3.25;;
21239;SDS011;10778;48.962;9.018;2022-08-04T05:58:46;5.43;;;3.10;;
21239;SDS011;10778;48.962;9.018;2022-08-04T06:01:12;5.50;;;3.30;;
21239;SDS011;10778;48.962;9.018;2022-08-04T06:03:41;7.28;;;3.90;;
21239;SDS011;10778;48.962;9.018;2022-08-04T06:06:10;5.38;;;3.40;;
21239;SDS011;10778;48.962;9.018;2022-08-04T06:08:38;5.60;;;3.22;;
21239;SDS011;10778;48.962;9.018;2022-08-04T06:11:05;5.07;;;3.22;;
21239;SDS011;10778;48.962;9.018;2022-08-04T06:13:43;4.75;;;3.50;;
21239;SDS011;10778;48.962;9.018;2022-08-04T06:16:16;5.13;;;3.35;;
21239;SDS011;10778;48.962;9.018;2022-08-04T06:18:45;3.35;;;2.95;;
21239;SDS011;10778;48.962;9.018;2022-08-04T06:21:19;7.60;;;3.20;;
21239;SDS011;10778;48.962;9.018;2022-08-04T06:23:48;5.50;;;3.28;;
21239;SDS011;10778;48.962;9.018;2022-08-04T06:26:15;4.53;;;3.10;;
21239;SDS011;10778;48.962;9.018;2022-08-04T06:28:50;6.15;;;3.10;;
21239;SDS011;10778;48.962;9.018;2022-08-04T06:31:18;6.68;;;3.60;;
21239;SDS011;10778;48.962;9.018;2022-08-04T06:34:04;5.07;;;3.03;;
21239;SDS011;10778;48.962;9.018;2022-08-04T06:36:32;4.43;;;3.35;;
21239;SDS011;10778;48.962;9.018;2022-08-04T06:39:03;5.75;;;3.17;;
21239;SDS011;10778;48.962;9.018;2022-08-04T06:41:30;6.80;;;3.03;;
21239;SDS011;10778;48.962;9.018;2022-08-04T06:43:58;6.60;;;3.35;;
21239;SDS011;10778;48.962;9.018;2022-08-04T06:46:26;4.97;;;3.20;;
21239;SDS011;10778;48.962;9.018;2022-08-04T06:48:54;7.05;;;3.30;;
21239;SDS011;10778;48.962;9.018;2022-08-04T06:51:21;5.30;;;3.05;;
21239;SDS011;10778;48.962;9.018;2022-08-04T06:53:49;3.58;;;2.83;;
21239;SDS011;10778;48.962;9.018;2022-08-04T06:56:16;3.28;;;2.63;;
21239;SDS011;10778;48.962;9.018;2022-08-04T06:58:46;8.05;;;3.40;;
21239;SDS011;10778;48.962;9.018;2022-08-04T07:01:15;4.65;;;2.92;;
21239;SDS011;10778;48.962;9.018;2022-08-04T07:03:43;6.05;;;2.58;;
21239;SDS011;10778;48.962;9.018;2022-08-04T07:06:10;3.78;;;2.92;;
21239;SDS011;10778;48.962;9.018;2022-08-04T07:08:37;5.15;;;2.60;;
21239;SDS011;10778;48.962;9.018;2022-08-04T07:11:04;6.95;;;2.60;;
21239;SDS011;10778;48.962;9.018;2022-08-04T07:13:31;4.38;;;2.55;;
21239;SDS011;10778;48.962;9.018;2022-08-04T07:15:58;4.93;;;2.70;;
21239;SDS011;10778;48.962;9.018;2022-08-04T07:18:25;6.28;;;2.80;;
21239;SDS011;10778;48.962;9.018;2022-08-04T07:20:51;6.13;;;2.70;;
21239;SDS011;10778;48.962;9.018;2022-08-04T07:23:24;7.05;;;2.65;;
21239;SDS011;10778;48.962;9.018;2022-08-04T07:25:51;5.25;;;2.35;;
21239;SDS011;10778;48.962;9.018;2022-08-04T07:28:20;7.28;;;2.40;;
21239;SDS011;10778;48.962;9.018;2022-08-04T07:30:48;5.10;;;2.55;;
21239;SDS011;10778;48.962;9.018;2022-08-04T07:33:17;5.28;;;2.38;;
21239;SDS011;10778;48.962;9.018;2022-08-04T07:35:44;6.97;;;2.70;;
21239;SDS011;10778;48.962;9.018;2022-08-04T07:38:12;6.50;;;2.03;;
21239;SDS011;10778;48.962;9.018;2022-08-04T07:40:38;4.50;;;2.38;;
21239;SDS011;10778;48.962;9.018;2022-08-04T07:43:05;5.85;;;2.50;;
21239;SDS011;10778;48.962;9.018;2022-08-04T07:45:31;5.35;;;2.65;;
21239;SDS011;10778;48.962;9.018;2022-08-04T07:47:57;5.70;;;2.30;;
21239;SDS011;10778;48.962;9.018;2022-08-04T07:50:24;7.88;;;2.63;;
21239;SDS011;10778;48.962;9.018;2022-08-04T07:52:51;5.32;;;2.80;;
21239;SDS011;10778;48.962;9.018;2022-08-04T07:55:18;6.18;;;2.63;;
21239;SDS011;10778;48.962;9.018;2022-08-04T07:57:44;5.47;;;2.55;;
21239;SDS011;10778;48.962;9.018;2022-08-04T08:00:11;4.05;;;2.33;;
21239;SDS011;10778;48.962;9.018;2022-08-04T08:02:40;8.35;;;2.58;;
21239;SDS011;10778;48.962;9.018;2022-08-04T08:05:11;7.60;;;2.40;;
21239;SDS011;10778;48.962;9.018;2022-08-04T08:07:43;8.70;;;2.30;;
21239;SDS011;10778;48.962;9.018;2022-08-04T08:10:11;5.28;;;2.40;;
21239;SDS011;10778;48.962;9.018;2022-08-04T08:12:38;3.70;;;2.30;;
21239;SDS011;10778;48.962;9.018;2022-08-04T08:15:06;5.28;;;2.00;;
21239;SDS011;10778;48.962;9.018;2022-08-04T08:17:33;5.07;;;2.53;;
21239;SDS011;10778;48.962;9.018;2022-08-04T08:19:59;2.90;;;2.20;;
21239;SDS011;10778;48.962;9.018;2022-08-04T08:22:26;3.35;;;2.28;;
21239;SDS011;10778;48.962;9.018;2022-08-04T08:24:53;5.15;;;2.55;;
21239;SDS011;10778;48.962;9.018;2022-08-04T08:27:19;5.90;;;2.65;;
21239;SDS011;10778;48.962;9.018;2022-08-04T08:29:45;7.78;;;2.63;;
21239;SDS011;10778;48.962;9.018;2022-08-04T08:32:12;5.35;;;2.40;;
21239;SDS011;10778;48.962;9.018;2022-08-04T08:34:39;6.40;;;2.50;;
21239;SDS011;10778;48.962;9.018;2022-08-04T08:37:20;8.63;;;2.10;;
21239;SDS011;10778;48.962;9.018;2022-08-04T08:39:58;5.10;;;2.10;;
21239;SDS011;10778;48.962;9.018;2022-08-04T08:42:46;3.25;;;2.00;;
21239;SDS011;10778;48.962;9.018;2022-08-04T09:07:52;6.38;;;2.42;;
21239;SDS011;10778;48.962;9.018;2022-08-04T09:10:41;5.93;;;2.60;;
21239;SDS011;10778;48.962;9.018;2022-08-04T09:13:15;6.90;;;2.60;;
21239;SDS011;10778;48.962;9.018;2022-08-04T09:15:51;5.63;;;2.65;;
21239;SDS011;10778;48.962;9.018;2022-08-04T09:18:26;7.22;;;2.40;;
21239;SDS011;10778;48.962;9.018;2022-08-04T09:21:02;6.25;;;2.50;;
21239;SDS011;10778;48.962;9.018;2022-08-04T09:26:31;7.03;;;2.35;;
21239;SDS011;10778;48.962;9.018;2022-08-04T09:29:02;4.68;;;2.13;;
21239;SDS011;10778;48.962;9.018;2022-08-04T09:31:35;4.75;;;2.28;;
21239;SDS011;10778;48.962;9.018;2022-08-04T09:37:08;7.57;;;2.30;;
21239;SDS011;10778;48.962;9.018;2022-08-04T09:39:45;4.93;;;2.40;;
21239;SDS011;10778;48.962;9.018;2022-08-04T09:42:22;4.95;;;2.30;;
21239;SDS011;10778;48.962;9.018;2022-08-04T09:45:08;5.30;;;2.50;;
21239;SDS011;10778;48.962;9.018;2022-08-04T09:50:34;4.13;;;2.30;;
21239;SDS011;10778;48.962;9.018;2022-08-04T09:53:12;7.18;;;2.53;;
21239;SDS011;10778;48.962;9.018;2022-08-04T09:58:55;2.72;;;2.15;;
21239;SDS011;10778;48.962;9.018;2022-08-04T10:01:44;2.35;;;1.90;;
21239;SDS011;10778;48.962;9.018;2022-08-04T10:04:15;3.90;;;1.98;;
21239;SDS011;10778;48.962;9.018;2022-08-04T10:18:35;3.67;;;2.22;;
21239;SDS011;10778;48.962;9.018;2022-08-04T10:21:17;6.15;;;2.05;;
21239;SDS011;10778;48.962;9.018;2022-08-04T10:29:39;3.50;;;2.10;;
21239;SDS011;10778;48.962;9.018;2022-08-04T10:32:10;3.63;;;2.20;;
21239;SDS011;10778;48.962;9.018;2022-08-04T10:34:43;8.45;;;2.30;;
21239;SDS011;10778;48.962;9.018;2022-08-04T10:37:27;3.72;;;1.98;;
21239;SDS011;10778;48.962;9.018;2022-08-04T10:43:02;3.35;;;2.20;;
21239;SDS011;10778;48.962;9.018;2022-08-04T10:45:41;2.58;;;2.10;;
21239;SDS011;10778;48.962;9.018;2022-08-04T10:51:17;3.38;;;1.90;;
21239;SDS011;10778;48.962;9.018;2022-08-04T10:53:44;5.47;;;1.95;;
21239;SDS011;10778;48.962;9.018;2022-08-04T10:56:39;3.65;;;1.98;;
21239;SDS011;10778;48.962;9.018;2022-08-04T10:59:10;4.18;;;2.20;;
21239;SDS011;10778;48.962;9.018;2022-08-04T11:01:41;2.53;;;2.20;;
21239;SDS011;10778;48.962;9.018;2022-08-04T11:07:01;3.00;;;2.05;;
21239;SDS011;10778;48.962;9.018;2022-08-04T11:09:27;3.35;;;2.20;;
21239;SDS011;10778;48.962;9.018;2022-08-04T11:12:13;3.70;;;2.03;;
21239;SDS011;10778;48.962;9.018;2022-08-04T11:14:48;4.28;;;2.17;;
21239;SDS011;10778;48.962;9.018;2022-08-04T11:17:28;4.28;;;1.80;;
21239;SDS011;10778;48.962;9.018;2022-08-04T11:20:10;2.40;;;1.80;;
21239;SDS011;10778;48.962;9.018;2022-08-04T11:23:22;2.10;;;1.90;;
21239;SDS011;10778;48.962;9.018;2022-08-04T11:25:31;2.47;;;1.90;;
21239;SDS011;10778;48.962;9.018;2022-08-04T11:28:10;3.85;;;2.10;;
21239;SDS011;10778;48.962;9.018;2022-08-04T11:30:50;3.17;;;2.30;;
21239;SDS011;10778;48.962;9.018;2022-08-04T11:36:28;4.97;;;2.00;;
21239;SDS011;10778;48.962;9.018;2022-08-04T11:39:08;2.72;;;2.00;;
21239;SDS011;10778;48.962;9.018;2022-08-04T11:52:37;2.90;;;2.10;;
21239;SDS011;10778;48.962;9.018;2022-08-04T11:55:07;2.95;;;1.88;;
21239;SDS011;10778;48.962;9.018;2022-08-04T11:57:36;2.33;;;2.10;;
21239;SDS011;10778;48.962;9.018;2022-08-04T12:00:04;2.88;;;1.90;;
21239;SDS011;10778;48.962;9.018;2022-08-04T12:02:40;3.30;;;1.92;;
21239;SDS011;10778;48.962;9.018;2022-08-04T12:05:40;3.13;;;1.92;;
21239;SDS011;10778;48.962;9.018;2022-08-04T12:19:28;2.85;;;2.00;;
21239;SDS011;10778;48.962;9.018;2022-08-04T12:22:00;3.70;;;2.10;;
21239;SDS011;10778;48.962;9.018;2022-08-04T12:29:43;5.95;;;2.33;;
21239;SDS011;10778;48.962;9.018;2022-08-04T12:35:02;2.47;;;1.90;;
21239;SDS011;10778;48.962;9.018;2022-08-04T12:40:44;2.80;;;2.00;;
21239;SDS011;10778;48.962;9.018;2022-08-04T12:46:05;3.95;;;1.98;;
21239;SDS011;10778;48.962;9.018;2022-08-04T12:48:34;4.85;;;2.20;;
21239;SDS011;10778;48.962;9.018;2022-08-04T12:51:02;2.70;;;2.00;;
21239;SDS011;10778;48.962;9.018;2022-08-04T12:53:33;4.25;;;1.90;;
21239;SDS011;10778;48.962;9.018;2022-08-04T12:56:02;2.53;;;1.85;;
21239;SDS011;10778;48.962;9.018;2022-08-04T12:58:31;3.65;;;2.00;;
21239;SDS011;10778;48.962;9.018;2022-08-04T13:01:03;2.00;;;1.83;;
21239;SDS011;10778;48.962;9.018;2022-08-04T13:03:46;3.90;;;2.10;;
21239;SDS011;10778;48.962;9.018;2022-08-04T13:06:17;2.88;;;2.10;;
21239;SDS011;10778;48.962;9.018;2022-08-04T13:08:50;5.55;;;2.10;;
21239;SDS011;10778;48.962;9.018;2022-08-04T13:11:15;3.78;;;2.20;;
21239;SDS011;10778;48.962;9.018;2022-08-04T13:13:43;4.13;;;2.05;;
21239;SDS011;10778;48.962;9.018;2022-08-04T13:16:10;3.78;;;2.15;;
21239;SDS011;10778;48.962;9.018;2022-08-04T13:18:38;4.03;;;2.13;;
21239;SDS011;10778;48.962;9.018;2022-08-04T13:21:14;3.47;;;2.25;;
21239;SDS011;10778;48.962;9.018;2022-08-04T13:23:43;3.70;;;2.08;;
21239;SDS011;10778;48.962;9.018;2022-08-04T13:26:14;2.72;;;2.30;;
21239;SDS011;10778;48.962;9.018;2022-08-04T13:28:42;3.80;;;1.92;;
21239;SDS011;10778;48.962;9.018;2022-08-04T13:31:15;2.53;;;2.30;;
21239;SDS011;10778;48.962;9.018;2022-08-04T13:33:48;8.90;;;2.80;;
21239;SDS011;10778;48.962;9.018;2022-08-04T13:36:17;6.07;;;2.40;;
21239;SDS011;10778;48.962;9.018;2022-08-04T13:38:48;4.28;;;2.45;;
21239;SDS011;10778;48.962;9.018;2022-08-04T13:41:16;2.63;;;2.10;;
21239;SDS011;10778;48.962;9.018;2022-08-04T13:43:45;3.92;;;2.10;;
21239;SDS011;10778;48.962;9.018;2022-08-04T13:46:18;4.85;;;2.47;;
21239;SDS011;10778;48.962;9.018;2022-08-04T13:48:48;4.03;;;2.28;;
21239;SDS011;10778;48.962;9.018;2022-08-04T13:51:16;5.82;;;2.30;;
21239;SDS011;10778;48.962;9.018;2022-08-04T13:53:52;2.85;;;2.05;;
21239;SDS011;10778;48.962;9.018;2022-08-04T13:56:21;4.47;;;2.35;;
21239;SDS011;10778;48.962;9.018;2022-08-04T13:58:54;2.30;;;2.10;;
21239;SDS011;10778;48.962;9.018;2022-08-04T14:01:25;4.15;;;2.38;;
21239;SDS011;10778;48.962;9.018;2022-08-04T14:06:28;2.70;;;2.20;;
21239;SDS011;10778;48.962;9.018;2022-08-04T14:09:09;4.60;;;2.15;;
21239;SDS011;10778;48.962;9.018;2022-08-04T14:11:40;5.55;;;2.70;;
21239;SDS011;10778;48.962;9.018;2022-08-04T14:14:21;5.15;;;2.40;;
21239;SDS011;10778;48.962;9.018;2022-08-04T14:16:58;3.80;;;2.45;;
21239;SDS011;10778;48.962;9.018;2022-08-04T14:22:30;4.53;;;2.38;;
21239;SDS011;10778;48.962;9.018;2022-08-04T14:27:28;2.63;;;2.33;;
21239;SDS011;10778;48.962;9.018;2022-08-04T14:30:06;3.40;;;2.00;;
21239;SDS011;10778;48.962;9.018;2022-08-04T14:33:04;2.58;;;2.30;;
21239;SDS011;10778;48.962;9.018;2022-08-04T14:35:34;2.88;;;2.30;;
21239;SDS011;10778;48.962;9.018;2022-08-04T14:38:06;3.38;;;1.90;;
21239;SDS011;10778;48.962;9.018;2022-08-04T14:40:35;3.35;;;2.10;;
21239;SDS011;10778;48.962;9.018;2022-08-04T14:43:06;3.38;;;2.25;;
21239;SDS011;10778;48.962;9.018;2022-08-04T14:45:36;3.20;;;2.10;;
21239;SDS011;10778;48.962;9.018;2022-08-04T14:53:02;3.08;;;2.13;;
21239;SDS011;10778;48.962;9.018;2022-08-04T14:55:32;4.32;;;2.15;;
21239;SDS011;10778;48.962;9.018;2022-08-04T14:57:58;2.85;;;2.25;;
21239;SDS011;10778;48.962;9.018;2022-08-04T15:00:25;3.10;;;2.20;;
21239;SDS011;10778;48.962;9.018;2022-08-04T15:02:53;2.90;;;2.13;;
21239;SDS011;10778;48.962;9.018;2022-08-04T15:05:25;3.65;;;2.20;;
21239;SDS011;10778;48.962;9.018;2022-08-04T15:07:51;2.70;;;2.30;;
21239;SDS011;10778;48.962;9.018;2022-08-04T15:10:18;2.40;;;2.08;;
21239;SDS011;10778;48.962;9.018;2022-08-04T15:12:45;2.42;;;2.17;;
21239;SDS011;10778;48.962;9.018;2022-08-04T15:15:11;5.85;;;2.30;;
21239;SDS011;10778;48.962;9.018;2022-08-04T15:17:37;2.30;;;2.10;;
21239;SDS011;10778;48.962;9.018;2022-08-04T15:20:05;3.42;;;2.30;;
21239;SDS011;10778;48.962;9.018;2022-08-04T15:22:32;5.07;;;2.35;;
21239;SDS011;10778;48.962;9.018;2022-08-04T15:24:58;4.55;;;2.47;;
21239;SDS011;10778;48.962;9.018;2022-08-04T15:27:24;7.78;;;2.50;;
21239;SDS011;10778;48.962;9.018;2022-08-04T15:29:56;5.80;;;2.40;;
21239;SDS011;10778;48.962;9.018;2022-08-04T15:32:25;4.35;;;2.40;;
21239;SDS011;10778;48.962;9.018;2022-08-04T15:34:59;3.17;;;1.98;;
21239;SDS011;10778;48.962;9.018;2022-08-04T15:45:54;2.22;;;2.03;;
21239;SDS011;10778;48.962;9.018;2022-08-04T15:48:25;3.72;;;2.20;;
21239;SDS011;10778;48.962;9.018;2022-08-04T15:53:20;3.13;;;2.22;;
21239;SDS011;10778;48.962;9.018;2022-08-04T15:55:46;5.85;;;2.30;;
21239;SDS011;10778;48.962;9.018;2022-08-04T15:58:13;2.70;;;2.10;;
21239;SDS011;10778;48.962;9.018;2022-08-04T16:16:30;4.15;;;2.35;;
21239;SDS011;10778;48.962;9.018;2022-08-04T16:21:55;3.20;;;2.40;;
21239;SDS011;10778;48.962;9.018;2022-08-04T16:24:34;3.30;;;2.20;;
21239;SDS011;10778;48.962;9.018;2022-08-04T16:27:02;2.60;;;2.30;;
21239;SDS011;10778;48.962;9.018;2022-08-04T16:29:43;2.78;;;2.17;;
21239;SDS011;10778;48.962;9.018;2022-08-04T16:37:30;2.42;;;2.22;;
21239;SDS011;10778;48.962;9.018;2022-08-04T16:43:08;2.33;;;2.10;;
21239;SDS011;10778;48.962;9.018;2022-08-04T16:45:50;3.65;;;2.30;;
21239;SDS011;10778;48.962;9.018;2022-08-04T16:48:28;4.18;;;2.28;;
21239;SDS011;10778;48.962;9.018;2022-08-04T16:50:57;2.45;;;2.13;;
21239;SDS011;10778;48.962;9.018;2022-08-04T16:53:26;2.63;;;2.22;;
21239;SDS011;10778;48.962;9.018;2022-08-04T16:55:57;3.75;;;2.30;;
21239;SDS011;10778;48.962;9.018;2022-08-04T16:58:25;2.90;;;2.30;;
21239;SDS011;10778;48.962;9.018;2022-08-04T17:00:53;2.60;;;2.40;;
21239;SDS011;10778;48.962;9.018;2022-08-04T17:03:19;4.00;;;2.33;;
21239;SDS011;10778;48.962;9.018;2022-08-04T17:05:45;2.60;;;2.40;;
21239;SDS011;10778;48.962;9.018;2022-08-04T17:08:12;3.63;;;2.00;;
21239;SDS011;10778;48.962;9.018;2022-08-04T17:10:41;3.10;;;2.20;;
21239;SDS011;10778;48.962;9.018;2022-08-04T17:13:28;2.38;;;2.13;;
21239;SDS011;10778;48.962;9.018;2022-08-04T17:15:59;2.83;;;2.30;;
21239;SDS011;10778;48.962;9.018;2022-08-04T17:18:28;4.65;;;2.30;;
21239;SDS011;10778;48.962;9.018;2022-08-04T17:21:01;2.45;;;2.25;;
21239;SDS011;10778;48.962;9.018;2022-08-04T17:25:57;2.17;;;2.00;;
21239;SDS011;10778;48.962;9.018;2022-08-04T17:28:25;2.40;;;2.20;;
21239;SDS011;10778;48.962;9.018;2022-08-04T17:30:53;2.50;;;2.08;;
21239;SDS011;10778;48.962;9.018;2022-08-04T17:33:20;4.75;;;2.20;;
21239;SDS011;10778;48.962;9.018;2022-08-04T17:35:48;5.45;;;2.40;;
21239;SDS011;10778;48.962;9.018;2022-08-04T17:38:14;2.78;;;2.00;;
21239;SDS011;10778;48.962;9.018;2022-08-04T17:40:59;2.95;;;2.28;;
21239;SDS011;10778;48.962;9.018;2022-08-04T17:46:13;4.13;;;2.30;;
21239;SDS011;10778;48.962;9.018;2022-08-04T17:48:43;2.92;;;2.13;;
21239;SDS011;10778;48.962;9.018;2022-08-04T17:51:13;2.40;;;2.20;;
21239;SDS011;10778;48.962;9.018;2022-08-04T17:53:40;2.20;;;2.00;;
21239;SDS011;10778;48.962;9.018;2022-08-04T17:56:26;2.20;;;2.00;;
21239;SDS011;10778;48.962;9.018;2022-08-04T18:07:10;2.70;;;2.50;;
21239;SDS011;10778;48.962;9.018;2022-08-04T18:12:22;3.67;;;2.25;;
21239;SDS011;10778;48.962;9.018;2022-08-04T18:14:49;5.32;;;2.30;;
21239;SDS011;10778;48.962;9.018;2022-08-04T18:20:23;3.40;;;2.10;;
21239;SDS011;10778;48.962;9.018;2022-08-04T18:22:50;3.65;;;2.28;;
21239;SDS011;10778;48.962;9.018;2022-08-04T18:25:18;3.83;;;2.30;;
21239;SDS011;10778;48.962;9.018;2022-08-04T18:27:51;6.70;;;2.33;;
21239;SDS011;10778;48.962;9.018;2022-08-04T18:30:19;3.88;;;2.30;;
21239;SDS011;10778;48.962;9.018;2022-08-04T18:32:46;3.08;;;2.28;;
21239;SDS011;10778;48.962;9.018;2022-08-04T18:35:13;3.30;;;2.10;;
21239;SDS011;10778;48.962;9.018;2022-08-04T18:37:39;3.25;;;2.30;;
21239;SDS011;10778;48.962;9.018;2022-08-04T18:40:10;3.47;;;2.22;;
21239;SDS011;10778;48.962;9.018;2022-08-04T18:42:38;5.15;;;2.38;;
21239;SDS011;10778;48.962;9.018;2022-08-04T18:45:04;2.28;;;2.08;;
21239;SDS011;10778;48.962;9.018;2022-08-04T18:47:31;4.07;;;2.20;;
21239;SDS011;10778;48.962;9.018;2022-08-04T18:49:57;2.50;;;2.30;;
21239;SDS011;10778;48.962;9.018;2022-08-04T18:52:24;4.25;;;2.42;;
21239;SDS011;10778;48.962;9.018;2022-08-04T18:54:50;4.35;;;2.47;;
21239;SDS011;10778;48.962;9.018;2022-08-04T18:57:20;3.88;;;2.40;;
21239;SDS011;10778;48.962;9.018;2022-08-04T18:59:47;4.28;;;2.40;;
21239;SDS011;10778;48.962;9.018;2022-08-04T19:02:13;5.15;;;2.35;;
21239;SDS011;10778;48.962;9.018;2022-08-04T19:04:40;9.20;;;2.80;;
21239;SDS011;10778;48.962;9.018;2022-08-04T19:07:07;7.15;;;2.88;;
21239;SDS011;10778;48.962;9.018;2022-08-04T19:09:38;6.22;;;2.65;;
21239;SDS011;10778;48.962;9.018;2022-08-04T19:12:05;9.20;;;2.95;;
21239;SDS011;10778;48.962;9.018;2022-08-04T19:14:31;5.93;;;2.67;;
21239;SDS011;10778;48.962;9.018;2022-08-04T19:16:57;7.88;;;2.80;;
21239;SDS011;10778;48.962;9.018;2022-08-04T19:19:23;17.65;;;3.70;;
21239;SDS011;10778;48.962;9.018;2022-08-04T19:21:49;23.02;;;3.63;;
21239;SDS011;10778;48.962;9.018;2022-08-04T19:24:15;12.90;;;3.30;;
21239;SDS011;10778;48.962;9.018;2022-08-04T19:26:42;16.70;;;3.30;;
21239;SDS011;10778;48.962;9.018;2022-08-04T19:29:08;12.45;;;3.20;;
21239;SDS011;10778;48.962;9.018;2022-08-04T19:31:34;13.68;;;3.20;;
21239;SDS011;10778;48.962;9.018;2022-08-04T19:34:00;8.77;;;2.85;;
21239;SDS011;10778;48.962;9.018;2022-08-04T19:36:27;9.85;;;3.00;;
21239;SDS011;10778;48.962;9.018;2022-08-04T19:38:58;12.75;;;3.08;;
21239;SDS011;10778;48.962;9.018;2022-08-04T19:41:26;7.38;;;2.90;;
21239;SDS011;10778;48.962;9.018;2022-08-04T19:43:54;6.20;;;3.10;;
21239;SDS011;10778;48.962;9.018;2022-08-04T19:46:20;9.18;;;3.40;;
21239;SDS011;10778;48.962;9.018;2022-08-04T19:48:46;6.35;;;3.00;;
21239;SDS011;10778;48.962;9.018;2022-08-04T19:51:12;10.93;;;3.45;;
21239;SDS011;10778;48.962;9.018;2022-08-04T19:53:38;10.07;;;2.80;;
21239;SDS011;10778;48.962;9.018;2022-08-04T19:56:04;8.32;;;2.92;;
21239;SDS011;10778;48.962;9.018;2022-08-04T19:58:30;6.80;;;2.80;;
21239;SDS011;10778;48.962;9.018;2022-08-04T20:00:56;8.52;;;2.72;;
21239;SDS011;10778;48.962;9.018;2022-08-04T20:03:22;6.88;;;2.80;;
21239;SDS011;10778;48.962;9.018;2022-08-04T20:05:48;5.35;;;3.00;;
21239;SDS011;10778;48.962;9.018;2022-08-04T20:08:14;3.72;;;2.80;;
21239;SDS011;10778;48.962;9.018;2022-08-04T20:10:40;15.80;;;3.20;;
21239;SDS011;10778;48.962;9.018;2022-08-04T20:13:06;20.20;;;3.15;;
21239;SDS011;10778;48.962;9.018;2022-08-04T20:15:32;15.77;;;3.38;;
21239;SDS011;10778;48.962;9.018;2022-08-04T20:17:58;12.13;;;3.58;;
21239;SDS011;10778;48.962;9.018;2022-08-04T20:20:25;13.35;;;3.60;;